createdAt,value
2023-03-29T05:01:16.119Z,23.51
2023-03-29T05:02:16.175Z,23.72
2023-03-29T05:03:16.215Z,23.77
2023-03-29T05:04:16.309Z,23.80
2023-03-29T05:05:16.257Z,23.83
2023-03-29T05:06:16.285Z,23.85
2023-03-29T05:07:16.275Z,23.87
2023-03-29T05:08:16.338Z,23.86
2023-03-29T05:09:16.361Z,23.86
2023-03-29T05:10:16.449Z,23.86
2023-03-29T05:11:16.494Z,23.86
2023-03-29T05:12:16.579Z,23.87
2023-03-29T05:13:16.598Z,23.86
2023-03-29T05:14:16.645Z,23.86
2023-03-29T05:15:16.672Z,23.85
2023-03-29T05:16:16.736Z,23.84
2023-03-29T05:17:16.752Z,23.84
2023-03-29T05:18:16.767Z,23.84
2023-03-29T05:19:16.864Z,23.85
2023-03-29T05:20:16.831Z,23.85
2023-03-29T05:21:16.897Z,23.86
2023-03-29T05:22:16.941Z,23.86
2023-03-29T05:23:16.956Z,23.86
2023-03-29T05:24:16.988Z,23.86
2023-03-29T05:25:17.029Z,23.87
2023-03-29T05:26:17.020Z,23.87
2023-03-29T05:27:17.123Z,23.87
2023-03-29T05:28:17.070Z,23.88
2023-03-29T05:29:17.111Z,23.88
2023-03-29T05:30:17.127Z,23.89
2023-03-29T05:31:17.342Z,23.88
2023-03-29T05:32:17.169Z,23.88
2023-03-29T05:33:17.186Z,23.88
2023-03-29T05:34:17.222Z,23.88
2023-03-29T05:35:17.217Z,23.89
2023-03-29T05:36:17.301Z,23.89
2023-03-29T05:37:17.254Z,23.89
2023-03-29T05:38:17.294Z,23.89
2023-03-29T05:39:17.366Z,23.88
2023-03-29T05:40:17.372Z,23.88
2023-03-29T05:41:17.331Z,23.88
2023-03-29T05:42:17.380Z,23.87
2023-03-29T05:43:17.371Z,23.85
2023-03-29T05:44:17.419Z,23.83
2023-03-29T05:45:17.428Z,23.82
2023-03-29T05:46:17.572Z,23.80
2023-03-29T05:47:17.544Z,23.80
2023-03-29T05:48:17.510Z,23.80
2023-03-29T05:49:17.531Z,23.79
2023-03-29T05:50:17.599Z,23.76
2023-03-29T05:51:17.628Z,23.77
2023-03-29T05:52:17.609Z,23.77
2023-03-29T05:53:17.682Z,23.75
2023-03-29T05:54:17.722Z,23.75
2023-03-29T05:55:17.764Z,23.76
2023-03-29T05:56:17.823Z,23.76
2023-03-29T05:57:17.811Z,23.78
2023-03-29T05:58:17.892Z,23.82
2023-03-29T05:59:17.942Z,23.84
2023-03-29T06:00:17.900Z,23.86
2023-03-29T06:01:18.095Z,23.89
2023-03-29T06:02:18.005Z,23.91
2023-03-29T06:04:18.229Z,23.95
2023-03-29T06:05:18.025Z,23.98
2023-03-29T06:06:18.041Z,24.01
2023-03-29T06:07:18.750Z,24.03
2023-03-29T06:08:18.008Z,24.07
2023-03-29T06:09:18.059Z,24.09
2023-03-29T06:10:18.054Z,24.10
2023-03-29T06:11:18.036Z,24.12
2023-03-29T06:12:18.048Z,24.14
2023-03-29T06:13:18.063Z,24.16
2023-03-29T06:14:18.118Z,24.17
2023-03-29T06:15:18.172Z,24.21
2023-03-29T06:16:18.253Z,24.22
2023-03-29T06:17:18.310Z,24.24
2023-03-29T06:18:18.314Z,24.26
2023-03-29T06:19:18.376Z,24.26
2023-03-29T06:20:18.451Z,24.27
2023-03-29T06:21:18.491Z,24.30
2023-03-29T06:22:18.555Z,24.31
2023-03-29T06:23:18.620Z,24.34
2023-03-29T06:24:18.645Z,24.36
2023-03-29T06:25:18.725Z,24.39
2023-03-29T06:26:18.773Z,24.40
2023-03-29T06:27:18.855Z,24.42
2023-03-29T06:28:18.869Z,24.44
2023-03-29T06:29:18.940Z,24.47
2023-03-29T06:30:18.958Z,24.47
2023-03-29T06:31:19.025Z,24.47
2023-03-29T06:32:19.020Z,24.45
2023-03-29T06:33:19.101Z,24.44
2023-03-29T06:34:19.129Z,24.46
2023-03-29T06:35:19.174Z,24.48
2023-03-29T06:36:19.228Z,24.50
2023-03-29T06:37:19.231Z,24.49
2023-03-29T06:38:19.274Z,24.50
2023-03-29T06:39:19.314Z,24.50
2023-03-29T06:40:19.389Z,24.52
2023-03-29T06:41:19.418Z,24.51
2023-03-29T06:42:21.579Z,24.52
2023-03-29T06:43:19.447Z,24.52
2023-03-29T06:44:19.514Z,24.54
2023-03-29T06:45:21.248Z,24.54
2023-03-29T06:46:19.541Z,24.55
2023-03-29T06:47:19.500Z,24.56
2023-03-29T06:48:19.520Z,24.55
2023-03-29T06:49:19.523Z,24.57
2023-03-29T06:50:19.484Z,24.58
2023-03-29T06:51:21.179Z,24.58
2023-03-29T06:52:19.589Z,24.59
2023-03-29T06:53:19.459Z,24.62
2023-03-29T06:54:19.465Z,24.63
2023-03-29T06:55:19.455Z,24.63
2023-03-29T06:56:19.416Z,24.63
2023-03-29T06:57:19.499Z,24.64
2023-03-29T06:58:21.602Z,24.64
2023-03-29T06:59:23.446Z,24.63
2023-03-29T07:00:19.427Z,24.65
2023-03-29T07:01:19.450Z,24.65
2023-03-29T07:02:35.152Z,24.64
2023-03-29T07:03:24.387Z,24.63
2023-03-29T07:04:19.433Z,24.65
2023-03-29T07:05:19.392Z,24.66
2023-03-29T07:06:19.800Z,24.68
2023-03-29T07:07:19.337Z,24.69
2023-03-29T07:08:19.393Z,24.70
2023-03-29T07:09:19.558Z,24.70
2023-03-29T07:10:19.343Z,24.69
2023-03-29T07:11:19.340Z,24.70
2023-03-29T07:12:19.348Z,24.70
2023-03-29T07:13:19.334Z,24.70
2023-03-29T07:14:19.321Z,24.71
2023-03-29T07:15:19.300Z,24.70
2023-03-29T07:16:19.418Z,24.70
2023-03-29T07:17:19.305Z,24.71
2023-03-29T07:18:19.294Z,24.71
2023-03-29T07:19:19.293Z,24.70
2023-03-29T07:20:19.278Z,24.70
2023-03-29T07:21:19.305Z,24.70
2023-03-29T07:22:19.299Z,24.71
2023-03-29T07:23:19.359Z,24.70
2023-03-29T07:24:19.304Z,24.70
2023-03-29T07:25:19.348Z,24.69
2023-03-29T07:26:28.837Z,24.69
2023-03-29T07:27:20.328Z,24.68
2023-03-29T07:28:19.377Z,24.70
2023-03-29T07:29:19.355Z,24.70
2023-03-29T07:30:19.371Z,24.71
2023-03-29T07:31:19.316Z,24.72
2023-03-29T07:32:19.311Z,24.71
2023-03-29T07:33:19.409Z,24.71
2023-03-29T07:34:19.347Z,24.73
2023-03-29T07:35:19.294Z,24.72
2023-03-29T07:36:19.377Z,24.73
2023-03-29T07:37:19.287Z,24.71
2023-03-29T07:38:19.287Z,24.70
2023-03-29T07:39:19.336Z,24.68
2023-03-29T07:40:19.250Z,24.66
2023-03-29T07:41:19.282Z,24.66
2023-03-29T07:42:19.264Z,24.69
2023-03-29T07:43:19.255Z,24.69
2023-03-29T07:44:19.201Z,24.69
2023-03-29T07:45:19.226Z,24.68
2023-03-29T07:46:20.271Z,24.69
2023-03-29T07:47:19.215Z,24.71
2023-03-29T07:48:19.240Z,24.72
2023-03-29T07:49:20.992Z,24.72
2023-03-29T07:50:19.161Z,24.73
2023-03-29T07:51:19.217Z,24.74
2023-03-29T07:52:19.206Z,24.74
2023-03-29T07:53:19.152Z,24.76
2023-03-29T07:54:19.148Z,24.75
2023-03-29T07:55:19.147Z,24.76
2023-03-29T07:56:19.133Z,24.78
2023-03-29T07:57:19.212Z,24.78
2023-03-29T07:58:19.117Z,24.77
2023-03-29T07:59:19.105Z,24.77
2023-03-29T08:00:19.155Z,24.75
2023-03-29T08:01:19.830Z,24.74
2023-03-29T08:02:19.166Z,24.73
2023-03-29T08:03:22.321Z,24.71
2023-03-29T08:04:19.221Z,24.70
2023-03-29T08:05:29.139Z,24.67
2023-03-29T08:06:25.182Z,24.67
2023-03-29T08:07:19.289Z,24.65
2023-03-29T08:08:19.065Z,24.64
2023-03-29T08:09:19.084Z,24.62
2023-03-29T08:10:19.049Z,24.61
2023-03-29T08:11:19.016Z,24.59
2023-03-29T08:12:19.047Z,24.58
2023-03-29T08:13:19.035Z,24.57
2023-03-29T08:14:19.029Z,24.56
2023-03-29T08:15:19.064Z,24.55
2023-03-29T08:16:19.027Z,24.54
2023-03-29T08:17:19.016Z,24.54
2023-03-29T08:18:19.020Z,24.53
2023-03-29T08:19:18.990Z,24.52
2023-03-29T08:20:18.980Z,24.52
2023-03-29T08:21:18.957Z,24.52
2023-03-29T08:22:18.969Z,24.51
2023-03-29T08:23:18.972Z,24.50
2023-03-29T08:24:20.891Z,24.50
2023-03-29T08:25:18.931Z,24.49
2023-03-29T08:26:18.900Z,24.47
2023-03-29T08:27:18.900Z,24.45
2023-03-29T08:28:18.891Z,24.43
2023-03-29T08:29:18.883Z,24.45
2023-03-29T08:30:18.892Z,24.45
2023-03-29T08:31:19.000Z,24.46
2023-03-29T08:32:19.001Z,24.50
2023-03-29T08:33:19.087Z,24.51
2023-03-29T08:34:19.069Z,24.52
2023-03-29T08:35:19.115Z,24.54
2023-03-29T08:36:19.205Z,24.55
2023-03-29T08:37:19.162Z,24.56
2023-03-29T08:38:19.223Z,24.57
2023-03-29T08:39:19.690Z,24.57
2023-03-29T08:40:19.287Z,24.57
2023-03-29T08:41:19.274Z,24.57
2023-03-29T08:42:19.317Z,24.57
2023-03-29T08:43:19.369Z,24.57
2023-03-29T08:44:19.390Z,24.56
2023-03-29T08:45:19.488Z,24.56
2023-03-29T08:46:19.491Z,24.56
2023-03-29T08:47:19.531Z,24.57
2023-03-29T08:48:19.566Z,24.57
2023-03-29T08:49:19.614Z,24.59
2023-03-29T08:50:19.591Z,24.60
2023-03-29T08:51:19.663Z,24.62
2023-03-29T08:52:19.674Z,24.62
2023-03-29T08:53:19.709Z,24.64
2023-03-29T08:54:19.755Z,24.66
2023-03-29T08:55:19.758Z,24.67
2023-03-29T08:56:19.780Z,24.70
2023-03-29T08:57:19.836Z,24.71
2023-03-29T08:58:19.788Z,24.72
2023-03-29T08:59:19.833Z,24.73
2023-03-29T09:00:20.393Z,24.74
2023-03-29T09:01:19.868Z,24.78
2023-03-29T09:02:19.936Z,24.81
2023-03-29T09:03:19.959Z,24.83
2023-03-29T09:04:19.883Z,24.84
2023-03-29T09:05:19.884Z,24.86
2023-03-29T09:06:19.883Z,24.88
2023-03-29T09:07:19.890Z,24.89
2023-03-29T09:08:19.881Z,24.87
2023-03-29T09:09:19.903Z,24.87
2023-03-29T09:10:19.883Z,24.87
2023-03-29T09:11:19.888Z,24.88
2023-03-29T09:12:19.929Z,24.90
2023-03-29T09:13:19.940Z,24.91
2023-03-29T09:14:19.894Z,24.92
2023-03-29T09:15:19.930Z,24.91
2023-03-29T09:16:19.953Z,24.81
2023-03-29T09:17:19.897Z,24.78
2023-03-29T09:18:19.999Z,24.77
2023-03-29T09:19:20.031Z,24.76
2023-03-29T09:20:19.960Z,24.77
2023-03-29T09:21:19.987Z,24.79
2023-03-29T09:22:19.988Z,24.81
2023-03-29T09:23:19.975Z,24.83
2023-03-29T09:24:20.029Z,24.86
2023-03-29T09:25:20.281Z,24.87
2023-03-29T09:26:20.014Z,24.89
2023-03-29T09:27:20.028Z,24.91
2023-03-29T09:28:20.039Z,24.93
2023-03-29T09:29:19.987Z,24.94
2023-03-29T09:30:19.994Z,24.94
2023-03-29T09:31:20.020Z,24.95
2023-03-29T09:32:20.029Z,24.97
2023-03-29T09:33:20.237Z,25.00
2023-03-29T09:34:20.296Z,25.01
2023-03-29T09:35:20.119Z,25.03
2023-03-29T09:36:20.625Z,25.05
2023-03-29T09:37:20.054Z,25.07
2023-03-29T09:38:20.024Z,25.08
2023-03-29T09:39:20.034Z,25.06
2023-03-29T09:40:20.067Z,25.07
2023-03-29T09:41:20.122Z,25.10
2023-03-29T09:42:20.051Z,25.10
2023-03-29T09:43:20.040Z,25.13
2023-03-29T09:44:30.107Z,25.14
2023-03-29T09:45:21.049Z,25.15
2023-03-29T09:46:20.090Z,25.16
2023-03-29T09:47:20.058Z,25.18
2023-03-29T09:48:20.023Z,25.19
2023-03-29T09:49:20.028Z,25.19
2023-03-29T09:50:30.930Z,25.19
2023-03-29T09:51:21.043Z,25.20
2023-03-29T09:52:20.025Z,25.21
2023-03-29T09:53:20.001Z,25.24
2023-03-29T09:54:20.018Z,25.24
2023-03-29T09:55:20.010Z,25.25
2023-03-29T09:56:20.001Z,25.26
2023-03-29T09:57:20.036Z,25.27
2023-03-29T09:58:19.988Z,25.27
2023-03-29T09:59:19.981Z,25.29
2023-03-29T10:00:20.074Z,25.31
2023-03-29T10:01:20.139Z,25.32
2023-03-29T10:02:20.128Z,25.32
2023-03-29T10:03:20.216Z,25.34
2023-03-29T10:04:20.288Z,25.36
2023-03-29T10:05:20.292Z,25.37
2023-03-29T10:06:20.330Z,25.38
2023-03-29T10:07:20.415Z,25.39
2023-03-29T10:08:20.460Z,25.39
2023-03-29T10:09:20.467Z,25.39
2023-03-29T10:10:20.556Z,25.39
2023-03-29T10:11:20.596Z,25.40
2023-03-29T10:12:20.620Z,25.40
2023-03-29T10:13:20.734Z,25.41
2023-03-29T10:14:20.717Z,25.42
2023-03-29T10:15:29.196Z,25.42
2023-03-29T10:16:21.798Z,25.41
2023-03-29T10:17:20.751Z,25.42
2023-03-29T10:18:20.749Z,25.43
2023-03-29T10:19:20.750Z,25.43
2023-03-29T10:20:20.736Z,25.44
2023-03-29T10:21:20.705Z,25.44
2023-03-29T10:22:20.714Z,25.43
2023-03-29T10:23:20.690Z,25.44
2023-03-29T10:24:20.687Z,25.44
2023-03-29T10:25:20.662Z,25.43
2023-03-29T10:26:20.671Z,25.41
2023-03-29T10:27:20.708Z,25.39
2023-03-29T10:28:20.722Z,25.37
2023-03-29T10:29:20.786Z,25.36
2023-03-29T10:30:20.824Z,25.33
2023-03-29T10:31:20.883Z,25.32
2023-03-29T10:33:21.036Z,25.28
2023-03-29T10:34:21.105Z,25.27
2023-03-29T10:35:21.175Z,25.24
2023-03-29T10:36:21.199Z,25.23
2023-03-29T10:37:21.340Z,25.22
2023-03-29T10:38:21.337Z,25.21
2023-03-29T10:39:21.332Z,25.21
2023-03-29T10:40:21.346Z,25.20
2023-03-29T10:41:21.383Z,25.18
2023-03-29T10:42:21.384Z,25.18
2023-03-29T10:43:21.437Z,25.18
2023-03-29T10:44:21.441Z,25.18
2023-03-29T10:45:21.463Z,25.17
2023-03-29T10:46:21.510Z,25.16
2023-03-29T10:47:21.462Z,25.16
2023-03-29T10:48:21.496Z,25.15
2023-03-29T10:49:21.501Z,25.15
2023-03-29T10:50:21.488Z,25.14
2023-03-29T10:51:21.472Z,25.14
2023-03-29T10:52:21.507Z,25.13
2023-03-29T10:53:21.499Z,25.11
2023-03-29T10:54:21.521Z,25.10
2023-03-29T10:55:21.515Z,25.10
2023-03-29T10:56:21.523Z,25.09
2023-03-29T10:57:22.894Z,25.09
2023-03-29T10:58:21.515Z,25.08
2023-03-29T10:59:21.500Z,25.07
2023-03-29T11:00:21.515Z,25.06
2023-03-29T11:01:21.620Z,25.08
2023-03-29T11:02:21.571Z,25.07
2023-03-29T11:03:21.878Z,25.07
2023-03-29T11:04:21.569Z,25.07
2023-03-29T11:05:21.562Z,25.06
2023-03-29T11:06:21.544Z,25.06
2023-03-29T11:07:21.543Z,25.06
2023-03-29T11:08:21.809Z,25.06
2023-03-29T11:09:21.577Z,25.04
2023-03-29T11:10:21.588Z,25.03
2023-03-29T11:11:21.580Z,25.02
2023-03-29T11:12:21.592Z,25.00
2023-03-29T11:13:21.558Z,24.99
2023-03-29T11:14:21.555Z,25.00
2023-03-29T11:15:21.602Z,24.99
2023-03-29T11:16:21.706Z,24.99
2023-03-29T11:17:21.713Z,24.99
2023-03-29T11:18:21.664Z,24.97
2023-03-29T11:19:21.612Z,24.97
2023-03-29T11:20:22.442Z,24.96
2023-03-29T11:21:21.638Z,24.96
2023-03-29T11:22:21.626Z,24.95
2023-03-29T11:23:21.647Z,24.95
2023-03-29T11:24:21.618Z,24.94
2023-03-29T11:25:21.637Z,24.94
2023-03-29T11:26:21.661Z,24.93
2023-03-29T11:27:21.622Z,24.93
2023-03-29T11:28:21.663Z,24.93
2023-03-29T11:29:21.653Z,24.92
2023-03-29T11:30:21.634Z,24.91
2023-03-29T11:31:21.660Z,24.92
2023-03-29T11:32:21.677Z,24.92
2023-03-29T11:33:21.683Z,24.93
2023-03-29T11:34:21.674Z,24.92
2023-03-29T11:35:21.654Z,24.92
2023-03-29T11:36:21.677Z,24.93
2023-03-29T11:37:21.642Z,24.93
2023-03-29T11:38:21.665Z,24.93
2023-03-29T11:39:21.689Z,24.95
2023-03-29T11:40:21.691Z,24.95
2023-03-29T11:41:21.662Z,24.96
2023-03-29T11:42:21.681Z,24.96
2023-03-29T11:43:21.658Z,24.97
2023-03-29T11:44:21.685Z,24.97
2023-03-29T11:45:21.691Z,24.98
2023-03-29T11:46:21.755Z,24.97
2023-03-29T11:47:21.699Z,24.98
2023-03-29T11:48:21.671Z,24.98
2023-03-29T11:49:21.680Z,24.98
2023-03-29T11:50:21.750Z,24.98
2023-03-29T11:51:21.742Z,24.96
2023-03-29T11:52:21.718Z,24.97
2023-03-29T11:53:21.751Z,24.97
2023-03-29T11:54:21.714Z,24.97
2023-03-29T11:55:21.751Z,24.97
2023-03-29T11:56:21.736Z,24.96
2023-03-29T11:57:21.816Z,24.97
2023-03-29T11:58:21.761Z,24.97
2023-03-29T11:59:21.737Z,24.98
2023-03-29T12:00:21.744Z,24.97
2023-03-29T12:01:21.749Z,24.97
2023-03-29T12:02:21.864Z,24.98
2023-03-29T12:03:21.943Z,24.98
2023-03-29T12:04:21.829Z,24.97
2023-03-29T12:05:21.751Z,24.98
2023-03-29T12:06:21.779Z,24.96
2023-03-29T12:07:21.777Z,24.95
2023-03-29T12:08:21.803Z,24.95
2023-03-29T12:09:21.804Z,24.94
2023-03-29T12:10:21.791Z,24.92
2023-03-29T12:11:21.796Z,24.92
2023-03-29T12:12:21.852Z,24.90
2023-03-29T12:13:21.895Z,24.88
2023-03-29T12:14:21.909Z,24.87
2023-03-29T12:15:21.878Z,24.86
2023-03-29T12:16:21.979Z,24.84
2023-03-29T12:17:21.889Z,24.83
2023-03-29T12:18:21.862Z,24.82
2023-03-29T12:19:21.906Z,24.83
2023-03-29T12:20:21.872Z,24.83
2023-03-29T12:21:21.933Z,24.81
2023-03-29T12:22:21.890Z,24.82
2023-03-29T12:23:21.948Z,24.82
2023-03-29T12:24:22.001Z,24.79
2023-03-29T12:25:23.322Z,24.77
2023-03-29T12:26:21.974Z,24.73
2023-03-29T12:27:22.017Z,24.60
2023-03-29T12:28:22.321Z,24.46
2023-03-29T12:29:22.298Z,24.43
2023-03-29T12:30:22.257Z,24.43
2023-03-29T12:31:22.271Z,24.43
2023-03-29T12:32:22.323Z,24.46
2023-03-29T12:33:22.332Z,24.47
2023-03-29T12:34:22.413Z,24.52
2023-03-29T12:35:22.641Z,24.55
2023-03-29T12:36:22.544Z,24.60
2023-03-29T12:37:22.736Z,24.62
2023-03-29T12:38:22.595Z,24.59
2023-03-29T12:39:22.625Z,24.61
2023-03-29T12:40:22.679Z,24.57
2023-03-29T12:41:22.688Z,24.57
2023-03-29T12:42:22.761Z,24.53
2023-03-29T12:43:22.774Z,24.47
2023-03-29T12:44:22.879Z,24.44
2023-03-29T12:45:22.926Z,24.44
2023-03-29T12:46:23.048Z,24.38
2023-03-29T12:47:22.994Z,24.32
2023-03-29T12:48:23.040Z,24.28
2023-03-29T12:49:23.047Z,24.22
2023-03-29T12:50:23.099Z,24.10
2023-03-29T12:51:23.068Z,24.05
2023-03-29T12:52:23.125Z,24.08
2023-03-29T12:53:23.233Z,24.05
2023-03-29T12:54:23.725Z,24.05
2023-03-29T12:55:23.102Z,24.03
2023-03-29T12:56:23.122Z,24.01
2023-03-29T12:57:23.283Z,24.00
2023-03-29T12:58:23.221Z,23.97
2023-03-29T12:59:23.248Z,23.96
2023-03-29T13:00:23.204Z,23.95
2023-03-29T13:01:23.460Z,23.98
2023-03-29T13:02:23.421Z,24.00
2023-03-29T13:03:23.382Z,24.01
2023-03-29T13:04:23.469Z,23.97
2023-03-29T13:05:23.364Z,23.99
2023-03-29T13:06:23.474Z,23.98
2023-03-29T13:07:23.408Z,24.01
2023-03-29T13:08:23.409Z,24.01
2023-03-29T13:09:23.417Z,24.02
